sensor_id;sensor_type;location;lat;lon;timestamp;pressure;altitude;pressure_sealevel;temperature;humidity
13478;BME280;12598;62.382;17.344;2022-08-24T00:00:22;102270.38;;;27.34;39.30
13478;BME280;12598;62.382;17.344;2022-08-24T00:01:25;102278.69;;;27.40;39.04
13478;BME280;12598;62.382;17.344;2022-08-24T00:02:28;102282.94;;;27.43;39.18
13478;BME280;12598;62.382;17.344;2022-08-24T00:03:31;102270.88;;;27.37;39.10
13478;BME280;12598;62.382;17.344;2022-08-24T00:04:35;102282.94;;;27.43;39.38
13478;BME280;12598;62.382;17.344;2022-08-24T00:05:37;102282.94;;;27.43;38.99
13478;BME280;12598;62.382;17.344;2022-08-24T00:06:39;102278.53;;;27.42;39.33
13478;BME280;12598;62.382;17.344;2022-08-24T00:07:41;102283.09;;;27.41;39.26
13478;BME280;12598;62.382;17.344;2022-08-24T00:08:43;102272.41;;;27.40;39.16
13478;BME280;12598;62.382;17.344;2022-08-24T00:09:46;102280.56;;;27.40;39.80
13478;BME280;12598;62.382;17.344;2022-08-24T00:10:51;102281.25;;;27.42;39.32
13478;BME280;12598;62.382;17.344;2022-08-24T00:11:53;102278.69;;;27.40;39.35
13478;BME280;12598;62.382;17.344;2022-08-24T00:12:54;102274.94;;;27.41;39.36
13478;BME280;12598;62.382;17.344;2022-08-24T00:13:56;102272.56;;;27.38;39.58
13478;BME280;12598;62.382;17.344;2022-08-24T00:14:59;102268.84;;;27.39;39.26
13478;BME280;12598;62.382;17.344;2022-08-24T00:16:01;102260.53;;;27.33;39.43
13478;BME280;12598;62.382;17.344;2022-08-24T00:17:04;102274.25;;;27.39;39.50
13478;BME280;12598;62.382;17.344;2022-08-24T00:18:06;102276.16;;;27.39;39.58
13478;BME280;12598;62.382;17.344;2022-08-24T00:19:08;102263.94;;;27.35;39.35
13478;BME280;12598;62.382;17.344;2022-08-24T00:20:12;102270.72;;;27.39;39.71
13478;BME280;12598;62.382;17.344;2022-08-24T00:21:14;102268.84;;;27.39;39.50
13478;BME280;12598;62.382;17.344;2022-08-24T00:22:16;102257.16;;;27.31;39.24
13478;BME280;12598;62.382;17.344;2022-08-24T00:23:18;102264.59;;;27.37;39.47
13478;BME280;12598;62.382;17.344;2022-08-24T00:24:20;102270.88;;;27.37;39.32
13478;BME280;12598;62.382;17.344;2022-08-24T00:25:22;102257.97;;;27.31;39.53
13478;BME280;12598;62.382;17.344;2022-08-24T00:26:24;102258.31;;;27.36;39.57
13478;BME280;12598;62.382;17.344;2022-08-24T00:27:29;102267.31;;;27.37;39.54
13478;BME280;12598;62.382;17.344;2022-08-24T00:28:32;102257.97;;;27.31;39.75
13478;BME280;12598;62.382;17.344;2022-08-24T00:29:34;102259.53;;;27.34;39.46
13478;BME280;12598;62.382;17.344;2022-08-24T00:30:36;102265.63;;;27.36;39.52
13478;BME280;12598;62.382;17.344;2022-08-24T00:31:38;102263.75;;;27.36;39.40
13478;BME280;12598;62.382;17.344;2022-08-24T00:32:42;102264.75;;;27.35;39.50
13478;BME280;12598;62.382;17.344;2022-08-24T00:33:44;102269.84;;;27.38;39.45
13478;BME280;12598;62.382;17.344;2022-08-24T00:34:46;102265.63;;;27.36;39.10
13478;BME280;12598;62.382;17.344;2022-08-24T00:35:59;102268.00;;;27.39;39.63
13478;BME280;12598;62.382;17.344;2022-08-24T00:37:02;102253.41;;;27.32;39.59
13478;BME280;12598;62.382;17.344;2022-08-24T00:38:04;102257.81;;;27.33;39.67
13478;BME280;12598;62.382;17.344;2022-08-24T00:39:07;102258.66;;;27.33;39.55
13478;BME280;12598;62.382;17.344;2022-08-24T00:40:17;102267.66;;;27.34;39.41
13478;BME280;12598;62.382;17.344;2022-08-24T00:41:20;102264.59;;;27.37;39.62
13478;BME280;12598;62.382;17.344;2022-08-24T00:42:23;102265.63;;;27.36;39.82
13478;BME280;12598;62.382;17.344;2022-08-24T00:43:27;102268.34;;;27.36;39.50
13478;BME280;12598;62.382;17.344;2022-08-24T00:44:29;102272.09;;;27.35;39.51
13478;BME280;12598;62.382;17.344;2022-08-24T00:45:34;102267.00;;;27.32;39.74
13478;BME280;12598;62.382;17.344;2022-08-24T00:46:52;102265.63;;;27.36;39.42
13478;BME280;12598;62.382;17.344;2022-08-24T00:48:03;102258.50;;;27.35;39.38
13478;BME280;12598;62.382;17.344;2022-08-24T00:49:11;102259.53;;;27.34;39.57
13478;BME280;12598;62.382;17.344;2022-08-24T00:50:37;102267.97;;;27.47;39.38
13478;BME280;12598;62.382;17.344;2022-08-24T00:52:00;102268.31;;;27.44;39.53
13478;BME280;12598;62.382;17.344;2022-08-24T00:53:12;102273.59;;;27.45;39.23
13478;BME280;12598;62.382;17.344;2022-08-24T00:54:17;102259.84;;;27.39;39.35
13478;BME280;12598;62.382;17.344;2022-08-24T00:55:22;102275.28;;;27.38;39.68
13478;BME280;12598;62.382;17.344;2022-08-24T00:56:31;102275.28;;;27.38;39.56
13478;BME280;12598;62.382;17.344;2022-08-24T00:57:40;102278.19;;;27.37;39.54
13478;BME280;12598;62.382;17.344;2022-08-24T00:58:56;102279.69;;;27.39;39.44
13478;BME280;12598;62.382;17.344;2022-08-24T01:00:07;102273.44;;;27.39;39.53
13478;BME280;12598;62.382;17.344;2022-08-24T01:01:10;102278.88;;;27.39;39.59
13478;BME280;12598;62.382;17.344;2022-08-24T01:02:20;102273.59;;;27.37;39.47
13478;BME280;12598;62.382;17.344;2022-08-24T01:03:25;102277.31;;;27.36;39.53
13478;BME280;12598;62.382;17.344;2022-08-24T01:04:51;102280.22;;;27.43;39.57
13478;BME280;12598;62.382;17.344;2022-08-24T01:05:54;102278.69;;;27.40;39.49
13478;BME280;12598;62.382;17.344;2022-08-24T01:06:57;102273.59;;;27.37;39.62
13478;BME280;12598;62.382;17.344;2022-08-24T01:08:00;102273.09;;;27.34;39.60
13478;BME280;12598;62.382;17.344;2022-08-24T01:09:04;102273.09;;;27.34;39.85
13478;BME280;12598;62.382;17.344;2022-08-24T01:10:10;102278.53;;;27.34;39.70
13478;BME280;12598;62.382;17.344;2022-08-24T01:11:15;102282.28;;;27.33;39.73
13478;BME280;12598;62.382;17.344;2022-08-24T01:12:19;102280.41;;;27.33;39.32
13478;BME280;12598;62.382;17.344;2022-08-24T01:13:22;102287.72;;;27.33;39.63
13478;BME280;12598;62.382;17.344;2022-08-24T01:14:25;102285.00;;;27.33;40.05
13478;BME280;12598;62.382;17.344;2022-08-24T01:15:29;102280.56;;;27.32;39.78
13478;BME280;12598;62.382;17.344;2022-08-24T01:16:31;102270.72;;;27.31;39.60
13478;BME280;12598;62.382;17.344;2022-08-24T01:17:51;102275.97;;;27.32;39.83
13478;BME280;12598;62.382;17.344;2022-08-24T01:19:43;102276.16;;;27.39;39.58
13478;BME280;12598;62.382;17.344;2022-08-24T01:20:45;102271.75;;;27.38;39.69
13478;BME280;12598;62.382;17.344;2022-08-24T01:22:01;102277.16;;;27.38;39.33
13478;BME280;12598;62.382;17.344;2022-08-24T01:23:35;102277.84;;;27.40;39.60
13478;BME280;12598;62.382;17.344;2022-08-24T01:24:39;102282.06;;;27.42;39.34
13478;BME280;12598;62.382;17.344;2022-08-24T01:25:42;102280.03;;;27.36;39.53
13478;BME280;12598;62.382;17.344;2022-08-24T01:26:47;102283.97;;;27.34;39.63
13478;BME280;12598;62.382;17.344;2022-08-24T01:27:50;102275.16;;;27.32;39.77
13478;BME280;12598;62.382;17.344;2022-08-24T01:29:00;102273.25;;;27.32;39.88
13478;BME280;12598;62.382;17.344;2022-08-24T01:30:08;102276.16;;;27.31;39.67
13478;BME280;12598;62.382;17.344;2022-08-24T01:31:12;102286.00;;;27.32;39.75
13478;BME280;12598;62.382;17.344;2022-08-24T01:32:21;102282.63;;;27.30;39.80
13478;BME280;12598;62.382;17.344;2022-08-24T01:33:27;102280.72;;;27.30;39.63
13478;BME280;12598;62.382;17.344;2022-08-24T01:34:29;102278.22;;;27.29;39.56
13478;BME280;12598;62.382;17.344;2022-08-24T01:35:32;102279.22;;;27.28;39.75
13478;BME280;12598;62.382;17.344;2022-08-24T01:36:38;102278.38;;;27.27;39.74
13478;BME280;12598;62.382;17.344;2022-08-24T01:37:41;102280.94;;;27.29;39.64
13478;BME280;12598;62.382;17.344;2022-08-24T01:38:45;102278.38;;;27.27;39.73
13478;BME280;12598;62.382;17.344;2022-08-24T01:39:51;102283.81;;;27.27;39.83
13478;BME280;12598;62.382;17.344;2022-08-24T01:40:57;102276.50;;;27.28;39.84
13478;BME280;12598;62.382;17.344;2022-08-24T01:42:01;102279.22;;;27.28;39.75
13478;BME280;12598;62.382;17.344;2022-08-24T01:43:05;102277.53;;;27.27;39.82
13478;BME280;12598;62.382;17.344;2022-08-24T01:44:08;102280.94;;;27.29;39.63
13478;BME280;12598;62.382;17.344;2022-08-24T01:45:10;102285.50;;;27.28;39.79
13478;BME280;12598;62.382;17.344;2022-08-24T01:46:15;102277.53;;;27.27;39.87
13478;BME280;12598;62.382;17.344;2022-08-24T01:47:17;102276.66;;;27.26;39.76
13478;BME280;12598;62.382;17.344;2022-08-24T01:48:19;102271.78;;;27.22;39.96
13478;BME280;12598;62.382;17.344;2022-08-24T01:49:28;102281.28;;;27.26;39.70
13478;BME280;12598;62.382;17.344;2022-08-24T01:50:32;102269.72;;;27.24;39.68
13478;BME280;12598;62.382;17.344;2022-08-24T01:51:35;102279.38;;;27.26;39.72
13478;BME280;12598;62.382;17.344;2022-08-24T01:52:40;102274.13;;;27.25;39.68
13478;BME280;12598;62.382;17.344;2022-08-24T01:54:05;102279.72;;;27.31;39.49
13478;BME280;12598;62.382;17.344;2022-08-24T01:55:11;102276.31;;;27.29;39.43
13478;BME280;12598;62.382;17.344;2022-08-24T01:56:15;102284.31;;;27.31;39.46
13478;BME280;12598;62.382;17.344;2022-08-24T01:57:17;102276.50;;;27.28;39.54
13478;BME280;12598;62.382;17.344;2022-08-24T01:58:19;102280.25;;;27.27;40.01
13478;BME280;12598;62.382;17.344;2022-08-24T01:59:21;102277.53;;;27.27;39.86
13478;BME280;12598;62.382;17.344;2022-08-24T02:00:24;102281.28;;;27.26;39.88
13478;BME280;12598;62.382;17.344;2022-08-24T02:01:28;102281.28;;;27.26;39.78
13478;BME280;12598;62.382;17.344;2022-08-24T02:02:31;102275.16;;;27.24;40.04
13478;BME280;12598;62.382;17.344;2022-08-24T02:03:33;102271.06;;;27.20;39.90
13478;BME280;12598;62.382;17.344;2022-08-24T02:04:35;102284.13;;;27.24;39.69
13478;BME280;12598;62.382;17.344;2022-08-24T02:05:39;102285.00;;;27.25;39.75
13478;BME280;12598;62.382;17.344;2022-08-24T02:06:43;102281.28;;;27.26;39.87
13478;BME280;12598;62.382;17.344;2022-08-24T02:07:47;102273.94;;;27.26;39.76
13478;BME280;12598;62.382;17.344;2022-08-24T02:08:49;102285.00;;;27.25;39.68
13478;BME280;12598;62.382;17.344;2022-08-24T02:09:51;102285.00;;;27.25;39.81
13478;BME280;12598;62.382;17.344;2022-08-24T02:10:53;102286.03;;;27.24;39.67
13478;BME280;12598;62.382;17.344;2022-08-24T02:11:58;102287.72;;;27.25;39.77
13478;BME280;12598;62.382;17.344;2022-08-24T02:13:02;102282.44;;;27.23;39.75
13478;BME280;12598;62.382;17.344;2022-08-24T02:14:04;102287.72;;;27.25;39.91
13478;BME280;12598;62.382;17.344;2022-08-24T02:15:07;102277.88;;;27.24;39.95
13478;BME280;12598;62.382;17.344;2022-08-24T02:16:10;102284.47;;;27.22;39.78
13478;BME280;12598;62.382;17.344;2022-08-24T02:17:12;102288.75;;;27.24;39.69
13478;BME280;12598;62.382;17.344;2022-08-24T02:18:14;102296.91;;;27.24;39.77
13478;BME280;12598;62.382;17.344;2022-08-24T02:19:17;102284.13;;;27.24;39.99
13478;BME280;12598;62.382;17.344;2022-08-24T02:20:19;102293.16;;;27.25;39.71
13478;BME280;12598;62.382;17.344;2022-08-24T02:21:23;102275.81;;;27.18;39.85
13478;BME280;12598;62.382;17.344;2022-08-24T02:22:25;102276.84;;;27.17;39.79
13478;BME280;12598;62.382;17.344;2022-08-24T02:23:28;102278.72;;;27.24;39.74
13478;BME280;12598;62.382;17.344;2022-08-24T02:24:30;102288.75;;;27.24;39.65
13478;BME280;12598;62.382;17.344;2022-08-24T02:25:32;102274.31;;;27.16;39.86
13478;BME280;12598;62.382;17.344;2022-08-24T02:26:34;102283.31;;;27.24;39.77
13478;BME280;12598;62.382;17.344;2022-08-24T02:27:37;102284.13;;;27.24;39.86
13478;BME280;12598;62.382;17.344;2022-08-24T02:28:39;102286.03;;;27.24;40.03
13478;BME280;12598;62.382;17.344;2022-08-24T02:29:42;102284.13;;;27.24;39.77
13478;BME280;12598;62.382;17.344;2022-08-24T02:30:44;102286.84;;;27.24;40.07
13478;BME280;12598;62.382;17.344;2022-08-24T02:31:46;102281.44;;;27.24;39.58
13478;BME280;12598;62.382;17.344;2022-08-24T02:32:48;102284.13;;;27.24;39.82
13478;BME280;12598;62.382;17.344;2022-08-24T02:33:50;102294.19;;;27.24;39.64
13478;BME280;12598;62.382;17.344;2022-08-24T02:34:52;102284.34;;;27.23;39.53
13478;BME280;12598;62.382;17.344;2022-08-24T02:35:55;102278.72;;;27.24;39.66
13478;BME280;12598;62.382;17.344;2022-08-24T02:36:57;102289.56;;;27.24;39.27
13478;BME280;12598;62.382;17.344;2022-08-24T02:38:01;102283.31;;;27.24;39.85
13478;BME280;12598;62.382;17.344;2022-08-24T02:39:06;102276.50;;;27.20;39.71
13478;BME280;12598;62.382;17.344;2022-08-24T02:40:10;102277.88;;;27.24;39.63
13478;BME280;12598;62.382;17.344;2022-08-24T02:41:13;102285.00;;;27.25;39.53
13478;BME280;12598;62.382;17.344;2022-08-24T02:42:15;102277.88;;;27.24;39.54
13478;BME280;12598;62.382;17.344;2022-08-24T02:43:17;102280.22;;;27.19;39.50
13478;BME280;12598;62.382;17.344;2022-08-24T02:44:19;102288.91;;;27.23;39.64
13478;BME280;12598;62.382;17.344;2022-08-24T02:45:21;102290.59;;;27.23;39.63
13478;BME280;12598;62.382;17.344;2022-08-24T02:46:27;102290.06;;;27.20;39.44
13478;BME280;12598;62.382;17.344;2022-08-24T02:47:29;102286.03;;;27.24;39.50
13478;BME280;12598;62.382;17.344;2022-08-24T02:48:40;102289.56;;;27.24;39.36
13478;BME280;12598;62.382;17.344;2022-08-24T02:49:42;102286.03;;;27.24;39.62
13478;BME280;12598;62.382;17.344;2022-08-24T02:50:47;102284.47;;;27.22;39.63
13478;BME280;12598;62.382;17.344;2022-08-24T02:51:49;102282.44;;;27.23;39.50
13478;BME280;12598;62.382;17.344;2022-08-24T02:52:53;102281.44;;;27.24;39.51
13478;BME280;12598;62.382;17.344;2022-08-24T02:53:58;102283.47;;;27.23;39.59
13478;BME280;12598;62.382;17.344;2022-08-24T02:55:00;102285.16;;;27.23;39.89
13478;BME280;12598;62.382;17.344;2022-08-24T02:56:03;102285.34;;;27.22;39.60
13478;BME280;12598;62.382;17.344;2022-08-24T02:57:05;102286.19;;;27.23;39.63
13478;BME280;12598;62.382;17.344;2022-08-24T02:58:09;102292.63;;;27.22;39.69
13478;BME280;12598;62.382;17.344;2022-08-24T02:59:11;102285.34;;;27.22;39.52
13478;BME280;12598;62.382;17.344;2022-08-24T03:00:16;102283.63;;;27.21;39.75
13478;BME280;12598;62.382;17.344;2022-08-24T03:01:24;102281.94;;;27.20;39.68
13478;BME280;12598;62.382;17.344;2022-08-24T03:02:31;102288.75;;;27.24;39.66
13478;BME280;12598;62.382;17.344;2022-08-24T03:03:33;102282.44;;;27.23;39.66
13478;BME280;12598;62.382;17.344;2022-08-24T03:04:36;102289.91;;;27.22;39.35
13478;BME280;12598;62.382;17.344;2022-08-24T03:05:39;102289.06;;;27.21;39.70
13478;BME280;12598;62.382;17.344;2022-08-24T03:06:41;102290.78;;;27.22;39.59
13478;BME280;12598;62.382;17.344;2022-08-24T03:07:45;102281.94;;;27.20;39.53
13478;BME280;12598;62.382;17.344;2022-08-24T03:08:47;102288.38;;;27.19;39.56
13478;BME280;12598;62.382;17.344;2022-08-24T03:09:57;102285.34;;;27.22;39.53
13478;BME280;12598;62.382;17.344;2022-08-24T03:10:59;102272.41;;;27.16;39.49
13478;BME280;12598;62.382;17.344;2022-08-24T03:12:01;102281.09;;;27.20;39.58
13478;BME280;12598;62.382;17.344;2022-08-24T03:13:03;102287.34;;;27.20;39.72
13478;BME280;12598;62.382;17.344;2022-08-24T03:14:05;102286.53;;;27.20;39.71
13478;BME280;12598;62.382;17.344;2022-08-24T03:15:12;102289.06;;;27.21;39.72
13478;BME280;12598;62.382;17.344;2022-08-24T03:16:14;102282.28;;;27.17;39.58
13478;BME280;12598;62.382;17.344;2022-08-24T03:17:17;102286.53;;;27.20;39.70
13478;BME280;12598;62.382;17.344;2022-08-24T03:18:21;102287.34;;;27.20;39.78
13478;BME280;12598;62.382;17.344;2022-08-24T03:19:26;102291.78;;;27.21;39.70
13478;BME280;12598;62.382;17.344;2022-08-24T03:20:28;102286.53;;;27.20;39.68
13478;BME280;12598;62.382;17.344;2022-08-24T03:21:31;102289.25;;;27.20;39.51
13478;BME280;12598;62.382;17.344;2022-08-24T03:22:33;102284.31;;;27.15;39.78
13478;BME280;12598;62.382;17.344;2022-08-24T03:23:36;102290.25;;;27.19;39.43
13478;BME280;12598;62.382;17.344;2022-08-24T03:24:37;102296.53;;;27.19;39.56
13478;BME280;12598;62.382;17.344;2022-08-24T03:25:40;102297.72;;;27.17;39.98
13478;BME280;12598;62.382;17.344;2022-08-24T03:26:42;102299.25;;;27.19;39.76
13478;BME280;12598;62.382;17.344;2022-08-24T03:27:45;102279.03;;;27.06;39.73
13478;BME280;12598;62.382;17.344;2022-08-24T03:28:48;102294.34;;;27.15;40.01
13478;BME280;12598;62.382;17.344;2022-08-24T03:29:50;102300.25;;;27.18;39.89
13478;BME280;12598;62.382;17.344;2022-08-24T03:30:53;102296.72;;;27.18;39.73
13478;BME280;12598;62.382;17.344;2022-08-24T03:31:54;102302.16;;;27.18;39.84
13478;BME280;12598;62.382;17.344;2022-08-24T03:33:00;102297.53;;;27.18;39.67
13478;BME280;12598;62.382;17.344;2022-08-24T03:34:02;102300.25;;;27.18;39.40
13478;BME280;12598;62.382;17.344;2022-08-24T03:35:04;102294.00;;;27.18;39.62
13478;BME280;12598;62.382;17.344;2022-08-24T03:36:07;102302.97;;;27.18;39.73
13478;BME280;12598;62.382;17.344;2022-08-24T03:37:14;102288.03;;;27.14;39.75
13478;BME280;12598;62.382;17.344;2022-08-24T03:38:17;102300.94;;;27.20;39.61
13478;BME280;12598;62.382;17.344;2022-08-24T03:39:19;102295.69;;;27.19;39.66
13478;BME280;12598;62.382;17.344;2022-08-24T03:40:24;102285.31;;;27.14;39.67
13478;BME280;12598;62.382;17.344;2022-08-24T03:41:29;102301.97;;;27.19;39.70
13478;BME280;12598;62.382;17.344;2022-08-24T03:42:34;102295.69;;;27.19;39.44
13478;BME280;12598;62.382;17.344;2022-08-24T03:43:37;102298.56;;;27.17;39.97
13478;BME280;12598;62.382;17.344;2022-08-24T03:44:53;102289.41;;;27.18;39.54
13478;BME280;12598;62.382;17.344;2022-08-24T03:45:55;102307.25;;;27.21;39.96
13478;BME280;12598;62.382;17.344;2022-08-24T03:46:58;102303.66;;;27.20;39.77
13478;BME280;12598;62.382;17.344;2022-08-24T03:48:01;102295.38;;;27.14;39.68
13478;BME280;12598;62.382;17.344;2022-08-24T03:49:06;102293.13;;;27.17;39.40
13478;BME280;12598;62.382;17.344;2022-08-24T03:50:11;102302.97;;;27.18;39.92
13478;BME280;12598;62.382;17.344;2022-08-24T03:51:14;102293.13;;;27.17;39.76
13478;BME280;12598;62.382;17.344;2022-08-24T03:52:16;102295.16;;;27.15;39.70
13478;BME280;12598;62.382;17.344;2022-08-24T03:53:19;102307.59;;;27.18;39.79
13478;BME280;12598;62.382;17.344;2022-08-24T03:54:21;102305.69;;;27.18;39.87
13478;BME280;12598;62.382;17.344;2022-08-24T03:55:25;102313.84;;;27.18;39.76
13478;BME280;12598;62.382;17.344;2022-08-24T03:56:27;102313.84;;;27.18;39.84
13478;BME280;12598;62.382;17.344;2022-08-24T03:57:29;102302.31;;;27.16;39.79
13478;BME280;12598;62.382;17.344;2022-08-24T03:58:32;102303.50;;;27.14;39.63
13478;BME280;12598;62.382;17.344;2022-08-24T03:59:34;102310.44;;;27.16;39.80
13478;BME280;12598;62.382;17.344;2022-08-24T04:00:47;102312.81;;;27.19;39.80
13478;BME280;12598;62.382;17.344;2022-08-24T04:01:49;102314.84;;;27.17;39.75
13478;BME280;12598;62.382;17.344;2022-08-24T04:02:51;102305.69;;;27.18;39.75
13478;BME280;12598;62.382;17.344;2022-08-24T04:03:56;102313.84;;;27.18;39.74
13478;BME280;12598;62.382;17.344;2022-08-24T04:05:05;102301.97;;;27.19;39.79
13478;BME280;12598;62.382;17.344;2022-08-24T04:06:08;102316.56;;;27.18;39.62
13478;BME280;12598;62.382;17.344;2022-08-24T04:07:12;102296.53;;;27.19;39.68
13478;BME280;12598;62.382;17.344;2022-08-24T04:08:14;102310.28;;;27.18;39.85
13478;BME280;12598;62.382;17.344;2022-08-24T04:09:18;102304.53;;;27.13;39.79
13478;BME280;12598;62.382;17.344;2022-08-24T04:10:21;102295.50;;;27.12;39.89
13478;BME280;12598;62.382;17.344;2022-08-24T04:11:25;102312.34;;;27.16;40.21
13478;BME280;12598;62.382;17.344;2022-08-24T04:12:27;102309.44;;;27.17;39.72
13478;BME280;12598;62.382;17.344;2022-08-24T04:13:29;102313.16;;;27.16;39.84
13478;BME280;12598;62.382;17.344;2022-08-24T04:14:33;102319.28;;;27.18;39.86
13478;BME280;12598;62.382;17.344;2022-08-24T04:15:43;102308.25;;;27.20;39.82
13478;BME280;12598;62.382;17.344;2022-08-24T04:16:45;102312.16;;;27.17;39.68
13478;BME280;12598;62.382;17.344;2022-08-24T04:18:03;102316.22;;;27.21;39.44
13478;BME280;12598;62.382;17.344;2022-08-24T04:19:06;102306.56;;;27.19;39.54
13478;BME280;12598;62.382;17.344;2022-08-24T04:20:08;102316.56;;;27.18;39.50
13478;BME280;12598;62.382;17.344;2022-08-24T04:21:17;102323.00;;;27.17;39.70
13478;BME280;12598;62.382;17.344;2022-08-24T04:22:20;102308.06;;;27.13;39.64
13478;BME280;12598;62.382;17.344;2022-08-24T04:23:22;102311.31;;;27.09;39.56
13478;BME280;12598;62.382;17.344;2022-08-24T04:24:30;102325.56;;;27.19;39.53
13478;BME280;12598;62.382;17.344;2022-08-24T04:25:43;102316.56;;;27.18;39.70
13478;BME280;12598;62.382;17.344;2022-08-24T04:26:46;102310.97;;;27.12;39.39
13478;BME280;12598;62.382;17.344;2022-08-24T04:27:48;102317.44;;;27.19;39.48
13478;BME280;12598;62.382;17.344;2022-08-24T04:28:50;102309.28;;;27.11;39.71
13478;BME280;12598;62.382;17.344;2022-08-24T04:29:53;102319.63;;;27.15;39.56
13478;BME280;12598;62.382;17.344;2022-08-24T04:30:57;102308.59;;;27.09;39.56
13478;BME280;12598;62.382;17.344;2022-08-24T04:32:04;102317.25;;;27.12;39.41
13478;BME280;12598;62.382;17.344;2022-08-24T04:33:08;102315.53;;;27.11;39.33
13478;BME280;12598;62.382;17.344;2022-08-24T04:34:13;102321.31;;;27.16;39.58
13478;BME280;12598;62.382;17.344;2022-08-24T04:35:15;102324.03;;;27.16;39.45
13478;BME280;12598;62.382;17.344;2022-08-24T04:36:20;102316.41;;;27.12;39.52
13478;BME280;12598;62.382;17.344;2022-08-24T04:37:22;102322.34;;;27.15;39.53
13478;BME280;12598;62.382;17.344;2022-08-24T04:38:30;102324.91;;;27.17;39.45
13478;BME280;12598;62.382;17.344;2022-08-24T04:39:58;102317.94;;;27.22;39.42
13478;BME280;12598;62.382;17.344;2022-08-24T04:41:08;102313.16;;;27.16;39.44
13478;BME280;12598;62.382;17.344;2022-08-24T04:42:15;102317.22;;;27.20;39.29
13478;BME280;12598;62.382;17.344;2022-08-24T04:43:18;102318.25;;;27.19;39.30
13478;BME280;12598;62.382;17.344;2022-08-24T04:44:21;102314.84;;;27.17;39.49
13478;BME280;12598;62.382;17.344;2022-08-24T04:45:24;102316.91;;;27.15;39.28
13478;BME280;12598;62.382;17.344;2022-08-24T04:46:26;102315.06;;;27.16;39.43
13478;BME280;12598;62.382;17.344;2022-08-24T04:47:29;102323.19;;;27.16;39.39
13478;BME280;12598;62.382;17.344;2022-08-24T04:48:34;102319.63;;;27.15;39.41
13478;BME280;12598;62.382;17.344;2022-08-24T04:49:37;102321.66;;;27.13;39.43
13478;BME280;12598;62.382;17.344;2022-08-24T04:50:41;102323.34;;;27.14;39.34
13478;BME280;12598;62.382;17.344;2022-08-24T04:51:43;102313.84;;;27.10;39.53
13478;BME280;12598;62.382;17.344;2022-08-24T04:52:45;102314.53;;;27.12;39.54
13478;BME280;12598;62.382;17.344;2022-08-24T04:53:50;102312.00;;;27.11;39.46
13478;BME280;12598;62.382;17.344;2022-08-24T04:54:52;102319.81;;;27.14;39.63
13478;BME280;12598;62.382;17.344;2022-08-24T04:55:57;102315.19;;;27.14;39.51
13478;BME280;12598;62.382;17.344;2022-08-24T04:57:00;102317.91;;;27.14;39.46
13478;BME280;12598;62.382;17.344;2022-08-24T04:58:02;102320.63;;;27.14;39.45
13478;BME280;12598;62.382;17.344;2022-08-24T04:59:04;102324.38;;;27.13;39.53
13478;BME280;12598;62.382;17.344;2022-08-24T05:00:08;102317.91;;;27.14;39.42
13478;BME280;12598;62.382;17.344;2022-08-24T05:01:17;102323.19;;;27.16;39.71
13478;BME280;12598;62.382;17.344;2022-08-24T05:02:21;102323.34;;;27.14;39.59
13478;BME280;12598;62.382;17.344;2022-08-24T05:03:26;102315.19;;;27.14;39.56
13478;BME280;12598;62.382;17.344;2022-08-24T05:04:28;102318.25;;;27.11;39.46
13478;BME280;12598;62.382;17.344;2022-08-24T05:05:32;102317.91;;;27.14;39.50
13478;BME280;12598;62.382;17.344;2022-08-24T05:06:34;102289.19;;;26.96;39.84
13478;BME280;12598;62.382;17.344;2022-08-24T05:07:36;102322.69;;;27.12;39.43
13478;BME280;12598;62.382;17.344;2022-08-24T05:08:38;102325.03;;;27.15;39.52
13478;BME280;12598;62.382;17.344;2022-08-24T05:09:41;102318.59;;;27.16;39.60
13478;BME280;12598;62.382;17.344;2022-08-24T05:10:45;102316.41;;;27.12;39.52
13478;BME280;12598;62.382;17.344;2022-08-24T05:11:48;102318.59;;;27.16;39.59
13478;BME280;12598;62.382;17.344;2022-08-24T05:12:55;102322.50;;;27.22;39.27
13478;BME280;12598;62.382;17.344;2022-08-24T05:13:58;102313.69;;;27.20;39.62
13478;BME280;12598;62.382;17.344;2022-08-24T05:15:00;102324.06;;;27.24;39.00
13478;BME280;12598;62.382;17.344;2022-08-24T05:16:08;102307.25;;;27.21;39.41
13478;BME280;12598;62.382;17.344;2022-08-24T05:17:11;102320.66;;;27.30;39.18
13478;BME280;12598;62.382;17.344;2022-08-24T05:18:15;102317.06;;;27.29;39.31
13478;BME280;12598;62.382;17.344;2022-08-24T05:19:17;102322.84;;;27.34;39.30
13478;BME280;12598;62.382;17.344;2022-08-24T05:20:19;102326.22;;;27.36;38.88
13478;BME280;12598;62.382;17.344;2022-08-24T05:21:24;102323.00;;;27.41;39.19
13478;BME280;12598;62.382;17.344;2022-08-24T05:22:28;102319.97;;;27.44;38.81
13478;BME280;12598;62.382;17.344;2022-08-24T05:23:31;102327.75;;;27.47;38.73
13478;BME280;12598;62.382;17.344;2022-08-24T05:24:33;102326.59;;;27.49;38.71
13478;BME280;12598;62.382;17.344;2022-08-24T05:25:36;102319.09;;;27.51;38.65
13478;BME280;12598;62.382;17.344;2022-08-24T05:26:39;102318.25;;;27.51;38.64
13478;BME280;12598;62.382;17.344;2022-08-24T05:27:42;102323.66;;;27.59;38.34
13478;BME280;12598;62.382;17.344;2022-08-24T05:28:44;102325.19;;;27.61;38.15
13478;BME280;12598;62.382;17.344;2022-08-24T05:29:51;102330.28;;;27.64;38.42
13478;BME280;12598;62.382;17.344;2022-08-24T05:30:54;102326.19;;;27.68;38.47
13478;BME280;12598;62.382;17.344;2022-08-24T05:31:56;102320.63;;;27.70;38.16
13478;BME280;12598;62.382;17.344;2022-08-24T05:33:02;102326.41;;;27.75;37.96